Agoura Hills, California
Current Conditions -  °F | °C
As of 10:51 AM on Saturday 25 Oct 2014 (Local Time) from KVNY Reporting Station
Scattered Clouds Scattered Clouds  
Wind Chill: 77°   Ceiling: Unl
Heat Index: 77°   Visibility: 10mi
Dew Point: 39°   Wind: 5mph
Humidity: 25%   Direction: NA
Pressure: 30.06"   Gusts: NA
Location:  34.15°N, 118.77°W
Report Text: KVNY 251751Z VRB04KT 10SM SCT090 25/04 A3006 RMK AO2 SLP171 T02500039 10256 20139 51008
Loading
Personal Weather Stations






























Interactive Weather Map
Tropical Storm Tracking
New forecast layout! Learn more

10-Day Weather Forecast

Advertisements
Track Severe Weather on mobile